sensor_id;sensor_type;location;lat;lon;timestamp;pressure;altitude;pressure_sealevel;temperature;humidity
47785;BME280;35233;55.686;37.848;2023-02-18T00:01:10;99904.38;;;7.56;42.89
47785;BME280;35233;55.686;37.848;2023-02-18T00:03:36;99907.94;;;7.52;43.50
47785;BME280;35233;55.686;37.848;2023-02-18T00:06:12;99902.59;;;7.58;43.31
47785;BME280;35233;55.686;37.848;2023-02-18T00:08:39;99893.09;;;7.48;43.07
47785;BME280;35233;55.686;37.848;2023-02-18T00:11:05;99898.31;;;7.51;42.97
47785;BME280;35233;55.686;37.848;2023-02-18T00:13:31;99902.69;;;7.52;43.01
47785;BME280;35233;55.686;37.848;2023-02-18T00:16:05;99899.16;;;7.55;43.12
47785;BME280;35233;55.686;37.848;2023-02-18T00:18:30;99888.72;;;7.47;42.70
47785;BME280;35233;55.686;37.848;2023-02-18T00:20:56;99888.81;;;7.39;43.20
47785;BME280;35233;55.686;37.848;2023-02-18T00:23:22;99896.66;;;7.41;42.74
47785;BME280;35233;55.686;37.848;2023-02-18T00:25:47;99898.44;;;7.42;43.13
47785;BME280;35233;55.686;37.848;2023-02-18T00:28:13;99881.09;;;7.25;43.11
47785;BME280;35233;55.686;37.848;2023-02-18T00:30:42;99890.47;;;7.48;42.74
47785;BME280;35233;55.686;37.848;2023-02-18T00:33:07;99900.13;;;7.44;43.18
47785;BME280;35233;55.686;37.848;2023-02-18T00:35:33;99892.25;;;7.46;42.80
47785;BME280;35233;55.686;37.848;2023-02-18T00:37:58;99891.41;;;7.41;43.10
47785;BME280;35233;55.686;37.848;2023-02-18T00:40:25;99894.88;;;7.46;42.78
47785;BME280;35233;55.686;37.848;2023-02-18T00:42:50;99884.34;;;7.44;42.33
47785;BME280;35233;55.686;37.848;2023-02-18T00:45:16;99880.88;;;7.44;42.62
47785;BME280;35233;55.686;37.848;2023-02-18T00:47:41;99886.16;;;7.41;42.75
47785;BME280;35233;55.686;37.848;2023-02-18T00:50:08;99873.97;;;7.37;42.48
47785;BME280;35233;55.686;37.848;2023-02-18T00:52:34;99874.81;;;7.37;42.66
47785;BME280;35233;55.686;37.848;2023-02-18T00:54:59;99866.09;;;7.34;43.18
47785;BME280;35233;55.686;37.848;2023-02-18T00:57:25;99870.44;;;7.39;42.39
47785;BME280;35233;55.686;37.848;2023-02-18T00:59:50;99849.44;;;7.36;43.06
47785;BME280;35233;55.686;37.848;2023-02-18T01:02:16;99855.53;;;7.40;42.86
47785;BME280;35233;55.686;37.848;2023-02-18T01:04:42;99851.16;;;7.36;42.99
47785;BME280;35233;55.686;37.848;2023-02-18T01:07:07;99846.81;;;7.35;42.54
47785;BME280;35233;55.686;37.848;2023-02-18T01:09:34;99855.56;;;7.35;42.77
47785;BME280;35233;55.686;37.848;2023-02-18T01:12:00;99852.97;;;7.32;42.84
47785;BME280;35233;55.686;37.848;2023-02-18T01:14:26;99839.78;;;7.37;42.79
47785;BME280;35233;55.686;37.848;2023-02-18T01:16:51;99831.16;;;7.25;42.72
47785;BME280;35233;55.686;37.848;2023-02-18T01:19:17;99823.25;;;7.27;42.61
47785;BME280;35233;55.686;37.848;2023-02-18T01:21:42;99827.59;;;7.31;42.22
47785;BME280;35233;55.686;37.848;2023-02-18T01:24:08;99820.66;;;7.24;43.00
47785;BME280;35233;55.686;37.848;2023-02-18T01:26:33;99822.34;;;7.31;42.29
47785;BME280;35233;55.686;37.848;2023-02-18T01:28:59;99810.09;;;7.27;42.58
47785;BME280;35233;55.686;37.848;2023-02-18T01:31:24;99801.41;;;7.23;43.16
47785;BME280;35233;55.686;37.848;2023-02-18T01:33:50;99799.59;;;7.27;42.34
47785;BME280;35233;55.686;37.848;2023-02-18T01:36:16;99787.44;;;7.21;42.81
47785;BME280;35233;55.686;37.848;2023-02-18T01:38:42;99780.47;;;7.17;42.82
47785;BME280;35233;55.686;37.848;2023-02-18T01:41:08;99761.25;;;7.12;42.74
47785;BME280;35233;55.686;37.848;2023-02-18T01:43:34;99783.13;;;7.16;42.94
47785;BME280;35233;55.686;37.848;2023-02-18T01:46:17;99778.66;;;7.22;42.85
47785;BME280;35233;55.686;37.848;2023-02-18T01:49:01;99768.06;;;7.27;43.05
47785;BME280;35233;55.686;37.848;2023-02-18T01:51:34;99774.28;;;7.21;42.30
47785;BME280;35233;55.686;37.848;2023-02-18T01:54:14;99756.78;;;7.22;42.79
47785;BME280;35233;55.686;37.848;2023-02-18T01:56:52;99761.06;;;7.28;42.06
47785;BME280;35233;55.686;37.848;2023-02-18T01:59:24;99766.38;;;7.24;42.60
47785;BME280;35233;55.686;37.848;2023-02-18T02:01:51;99759.41;;;7.20;42.79
47785;BME280;35233;55.686;37.848;2023-02-18T02:04:19;99756.78;;;7.22;42.58
47785;BME280;35233;55.686;37.848;2023-02-18T02:06:44;99748.88;;;7.22;42.83
47785;BME280;35233;55.686;37.848;2023-02-18T02:09:12;99721.00;;;7.10;42.38
47785;BME280;35233;55.686;37.848;2023-02-18T02:14:55;99737.50;;;7.20;42.61
47785;BME280;35233;55.686;37.848;2023-02-18T02:25:48;99731.44;;;7.15;42.76
47785;BME280;35233;55.686;37.848;2023-02-18T02:40:16;99726.28;;;7.09;42.26
47785;BME280;35233;55.686;37.848;2023-02-18T02:46:23;99713.19;;;7.06;42.11
47785;BME280;35233;55.686;37.848;2023-02-18T02:51:59;99707.09;;;7.02;42.22
47785;BME280;35233;55.686;37.848;2023-02-18T02:54:28;99696.66;;;6.97;42.00
47785;BME280;35233;55.686;37.848;2023-02-18T02:59:52;99696.72;;;6.93;41.99
47785;BME280;35233;55.686;37.848;2023-02-18T03:02:46;99693.19;;;6.94;41.89
47785;BME280;35233;55.686;37.848;2023-02-18T03:13:08;99675.69;;;6.96;41.58
47785;BME280;35233;55.686;37.848;2023-02-18T03:18:29;99672.19;;;6.95;42.33
47785;BME280;35233;55.686;37.848;2023-02-18T03:21:18;99670.47;;;6.91;41.90
47785;BME280;35233;55.686;37.848;2023-02-18T03:26:20;99656.44;;;6.94;41.50
47785;BME280;35233;55.686;37.848;2023-02-18T03:28:48;99663.41;;;6.95;41.67
47785;BME280;35233;55.686;37.848;2023-02-18T03:31:17;99649.50;;;6.90;42.54
47785;BME280;35233;55.686;37.848;2023-02-18T03:33:50;99655.66;;;6.87;42.08
47785;BME280;35233;55.686;37.848;2023-02-18T03:36:18;99646.97;;;6.84;41.86
47785;BME280;35233;55.686;37.848;2023-02-18T03:41:16;99630.25;;;6.86;42.03
47785;BME280;35233;55.686;37.848;2023-02-18T03:44:03;99637.28;;;6.86;41.92
47785;BME280;35233;55.686;37.848;2023-02-18T03:46:29;99627.63;;;6.86;41.77
47785;BME280;35233;55.686;37.848;2023-02-18T03:48:55;99626.94;;;6.73;42.04
47785;BME280;35233;55.686;37.848;2023-02-18T03:51:21;99629.41;;;6.87;41.79
47785;BME280;35233;55.686;37.848;2023-02-18T03:53:47;99631.13;;;6.90;41.74
47785;BME280;35233;55.686;37.848;2023-02-18T03:56:12;99611.88;;;6.88;41.44
47785;BME280;35233;55.686;37.848;2023-02-18T03:58:38;99611.88;;;6.86;41.39
47785;BME280;35233;55.686;37.848;2023-02-18T04:01:04;99606.56;;;6.92;41.71
47785;BME280;35233;55.686;37.848;2023-02-18T04:03:30;99599.78;;;6.76;41.98
47785;BME280;35233;55.686;37.848;2023-02-18T04:05:56;99589.06;;;6.91;41.39
47785;BME280;35233;55.686;37.848;2023-02-18T04:08:22;99588.28;;;6.85;41.27
47785;BME280;35233;55.686;37.848;2023-02-18T04:10:47;99571.81;;;6.72;41.61
47785;BME280;35233;55.686;37.848;2023-02-18T04:13:13;99581.31;;;6.84;41.55
47785;BME280;35233;55.686;37.848;2023-02-18T04:15:39;99580.41;;;6.85;41.53
47785;BME280;35233;55.686;37.848;2023-02-18T04:18:04;99585.72;;;6.80;41.52
47785;BME280;35233;55.686;37.848;2023-02-18T04:20:30;99581.28;;;6.85;41.45
47785;BME280;35233;55.686;37.848;2023-02-18T04:22:56;99548.19;;;6.75;41.88
47785;BME280;35233;55.686;37.848;2023-02-18T04:25:22;99574.22;;;6.90;41.26
47785;BME280;35233;55.686;37.848;2023-02-18T04:27:47;99564.56;;;6.89;41.09
47785;BME280;35233;55.686;37.848;2023-02-18T04:30:13;99547.22;;;6.79;41.30
47785;BME280;35233;55.686;37.848;2023-02-18T04:32:38;99537.69;;;6.73;41.01
47785;BME280;35233;55.686;37.848;2023-02-18T04:35:04;99561.03;;;6.92;41.15
47785;BME280;35233;55.686;37.848;2023-02-18T04:37:30;99528.84;;;6.79;40.87
47785;BME280;35233;55.686;37.848;2023-02-18T04:39:55;99548.81;;;6.91;40.96
47785;BME280;35233;55.686;37.848;2023-02-18T04:42:21;99537.50;;;6.86;41.52
47785;BME280;35233;55.686;37.848;2023-02-18T04:44:46;99537.44;;;6.89;41.60
47785;BME280;35233;55.686;37.848;2023-02-18T04:47:12;99528.56;;;6.97;41.04
47785;BME280;35233;55.686;37.848;2023-02-18T04:49:37;99526.91;;;6.92;41.08
47785;BME280;35233;55.686;37.848;2023-02-18T04:52:03;99523.38;;;6.94;40.68
47785;BME280;35233;55.686;37.848;2023-02-18T04:54:29;99522.66;;;6.85;41.21
47785;BME280;35233;55.686;37.848;2023-02-18T04:56:54;99516.50;;;6.86;41.01
47785;BME280;35233;55.686;37.848;2023-02-18T04:59:20;99505.94;;;6.89;41.38
47785;BME280;35233;55.686;37.848;2023-02-18T05:01:45;99523.38;;;6.94;40.92
47785;BME280;35233;55.686;37.848;2023-02-18T05:04:11;99514.56;;;6.98;41.17
47785;BME280;35233;55.686;37.848;2023-02-18T05:06:36;99520.56;;;7.05;40.71
47785;BME280;35233;55.686;37.848;2023-02-18T05:09:04;99523.25;;;7.00;40.65
47785;BME280;35233;55.686;37.848;2023-02-18T05:11:30;99512.00;;;6.95;40.96
47785;BME280;35233;55.686;37.848;2023-02-18T05:13:55;99507.59;;;6.96;41.06
47785;BME280;35233;55.686;37.848;2023-02-18T05:16:21;99496.28;;;6.91;40.70
47785;BME280;35233;55.686;37.848;2023-02-18T05:18:46;99497.09;;;6.96;40.95
47785;BME280;35233;55.686;37.848;2023-02-18T05:21:12;99508.34;;;7.04;40.80
47785;BME280;35233;55.686;37.848;2023-02-18T05:23:37;99504.81;;;7.03;40.45
47785;BME280;35233;55.686;37.848;2023-02-18T05:26:03;99505.63;;;7.09;40.62
47785;BME280;35233;55.686;37.848;2023-02-18T05:28:28;99480.47;;;6.95;40.58
47785;BME280;35233;55.686;37.848;2023-02-18T05:30:54;99491.59;;;7.10;40.80
47785;BME280;35233;55.686;37.848;2023-02-18T05:33:19;99488.16;;;7.06;41.11
47785;BME280;35233;55.686;37.848;2023-02-18T05:35:45;99468.09;;;7.02;40.31
47785;BME280;35233;55.686;37.848;2023-02-18T05:38:10;99482.78;;;7.12;40.56
47785;BME280;35233;55.686;37.848;2023-02-18T05:40:37;99488.97;;;7.10;40.58
47785;BME280;35233;55.686;37.848;2023-02-18T05:43:03;99480.13;;;7.15;40.57
47785;BME280;35233;55.686;37.848;2023-02-18T05:45:28;99471.31;;;7.18;40.73
47785;BME280;35233;55.686;37.848;2023-02-18T05:47:57;99473.97;;;7.16;40.28
47785;BME280;35233;55.686;37.848;2023-02-18T05:50:22;99457.44;;;7.10;40.51
47785;BME280;35233;55.686;37.848;2023-02-18T05:52:48;99469.44;;;7.26;40.43
47785;BME280;35233;55.686;37.848;2023-02-18T05:55:13;99459.75;;;7.28;40.27
47785;BME280;35233;55.686;37.848;2023-02-18T05:57:39;99455.44;;;7.25;40.30
47785;BME280;35233;55.686;37.848;2023-02-18T06:00:05;99450.19;;;7.25;40.54
47785;BME280;35233;55.686;37.848;2023-02-18T06:02:33;99442.25;;;7.27;40.64
47785;BME280;35233;55.686;37.848;2023-02-18T06:04:58;99434.16;;;7.39;40.08
47785;BME280;35233;55.686;37.848;2023-02-18T06:07:24;99433.31;;;7.39;40.07
47785;BME280;35233;55.686;37.848;2023-02-18T06:09:49;99432.34;;;7.41;40.48
47785;BME280;35233;55.686;37.848;2023-02-18T06:12:15;99428.97;;;7.36;40.36
47785;BME280;35233;55.686;37.848;2023-02-18T06:14:40;99431.53;;;7.38;40.32
47785;BME280;35233;55.686;37.848;2023-02-18T06:17:08;99428.06;;;7.36;40.24
47785;BME280;35233;55.686;37.848;2023-02-18T06:19:33;99430.56;;;7.43;40.50
47785;BME280;35233;55.686;37.848;2023-02-18T06:21:59;99419.97;;;7.48;40.25
47785;BME280;35233;55.686;37.848;2023-02-18T06:24:25;99421.69;;;7.51;40.19
47785;BME280;35233;55.686;37.848;2023-02-18T06:26:50;99404.22;;;7.48;39.64
47785;BME280;35233;55.686;37.848;2023-02-18T06:29:16;99408.28;;;7.63;39.55
47785;BME280;35233;55.686;37.848;2023-02-18T06:31:41;99392.66;;;7.55;39.63
47785;BME280;35233;55.686;37.848;2023-02-18T06:34:07;99405.66;;;7.63;39.91
47785;BME280;35233;55.686;37.848;2023-02-18T06:36:32;99395.09;;;7.64;39.86
47785;BME280;35233;55.686;37.848;2023-02-18T06:38:58;99404.75;;;7.65;39.51
47785;BME280;35233;55.686;37.848;2023-02-18T06:41:23;99382.06;;;7.60;39.84
47785;BME280;35233;55.686;37.848;2023-02-18T06:43:49;99385.56;;;7.60;39.18
47785;BME280;35233;55.686;37.848;2023-02-18T06:46:15;99386.22;;;7.70;39.79
47785;BME280;35233;55.686;37.848;2023-02-18T06:48:41;99393.13;;;7.76;39.35
47785;BME280;35233;55.686;37.848;2023-02-18T06:51:06;99390.63;;;7.69;39.30
47785;BME280;35233;55.686;37.848;2023-02-18T06:53:32;99380.09;;;7.71;39.64
47785;BME280;35233;55.686;37.848;2023-02-18T06:55:58;99362.47;;;7.75;39.35
47785;BME280;35233;55.686;37.848;2023-02-18T06:58:26;99372.06;;;7.76;38.98
47785;BME280;35233;55.686;37.848;2023-02-18T07:00:54;99348.59;;;7.68;38.95
47785;BME280;35233;55.686;37.848;2023-02-18T07:03:20;99336.25;;;7.70;39.00
47785;BME280;35233;55.686;37.848;2023-02-18T07:05:48;99341.56;;;7.68;39.04
47785;BME280;35233;55.686;37.848;2023-02-18T07:08:14;99344.00;;;7.78;39.22
47785;BME280;35233;55.686;37.848;2023-02-18T07:10:39;99329.16;;;7.74;39.12
47785;BME280;35233;55.686;37.848;2023-02-18T07:13:05;99319.69;;;7.68;39.14
47785;BME280;35233;55.686;37.848;2023-02-18T07:15:31;99330.72;;;7.84;39.18
47785;BME280;35233;55.686;37.848;2023-02-18T07:17:56;99340.38;;;7.83;38.72
47785;BME280;35233;55.686;37.848;2023-02-18T07:20:23;99324.81;;;7.74;39.09
47785;BME280;35233;55.686;37.848;2023-02-18T07:22:51;99320.41;;;7.75;38.98
47785;BME280;35233;55.686;37.848;2023-02-18T07:25:20;99322.03;;;7.80;38.76
47785;BME280;35233;55.686;37.848;2023-02-18T07:27:49;99316.06;;;7.72;39.19
47785;BME280;35233;55.686;37.848;2023-02-18T07:30:14;99299.38;;;7.75;39.18
47785;BME280;35233;55.686;37.848;2023-02-18T07:32:40;99309.75;;;7.81;39.17
47785;BME280;35233;55.686;37.848;2023-02-18T07:35:06;99306.13;;;7.86;39.33
47785;BME280;35233;55.686;37.848;2023-02-18T07:37:32;99300.94;;;7.82;39.10
47785;BME280;35233;55.686;37.848;2023-02-18T07:39:57;99290.41;;;7.83;39.72
47785;BME280;35233;55.686;37.848;2023-02-18T07:42:23;99289.53;;;7.83;39.20
47785;BME280;35233;55.686;37.848;2023-02-18T07:44:48;99284.34;;;7.80;39.18
47785;BME280;35233;55.686;37.848;2023-02-18T07:47:16;99279.03;;;7.81;39.26
47785;BME280;35233;55.686;37.848;2023-02-18T07:49:44;99278.94;;;7.86;39.32
47785;BME280;35233;55.686;37.848;2023-02-18T07:52:10;99270.22;;;7.85;39.43
47785;BME280;35233;55.686;37.848;2023-02-18T07:54:35;99268.44;;;7.86;39.30
47785;BME280;35233;55.686;37.848;2023-02-18T07:57:00;99269.25;;;7.88;39.34
47785;BME280;35233;55.686;37.848;2023-02-18T07:59:26;99265.72;;;7.89;39.46
47785;BME280;35233;55.686;37.848;2023-02-18T08:01:52;99255.28;;;7.86;39.23
47785;BME280;35233;55.686;37.848;2023-02-18T08:04:17;99267.53;;;7.87;39.52
47785;BME280;35233;55.686;37.848;2023-02-18T08:06:45;99258.78;;;7.85;39.27
47785;BME280;35233;55.686;37.848;2023-02-18T08:09:12;99261.19;;;7.94;39.11
47785;BME280;35233;55.686;37.848;2023-02-18T08:11:38;99256.06;;;7.89;39.51
47785;BME280;35233;55.686;37.848;2023-02-18T08:14:04;99246.41;;;7.90;39.74
47785;BME280;35233;55.686;37.848;2023-02-18T08:16:30;99240.38;;;7.85;39.63
47785;BME280;35233;55.686;37.848;2023-02-18T08:18:59;99236.97;;;7.81;39.58
47785;BME280;35233;55.686;37.848;2023-02-18T08:21:25;99233.09;;;7.98;39.31
47785;BME280;35233;55.686;37.848;2023-02-18T08:23:51;99230.53;;;7.94;39.50
47785;BME280;35233;55.686;37.848;2023-02-18T08:26:17;99215.56;;;7.97;39.30
47785;BME280;35233;55.686;37.848;2023-02-18T08:28:44;99230.47;;;7.98;39.84
47785;BME280;35233;55.686;37.848;2023-02-18T08:31:22;99206.94;;;7.91;40.04
47785;BME280;35233;55.686;37.848;2023-02-18T08:33:48;99203.22;;;8.00;39.47
47785;BME280;35233;55.686;37.848;2023-02-18T08:36:14;99204.00;;;8.04;39.71
47785;BME280;35233;55.686;37.848;2023-02-18T08:38:39;99199.59;;;8.04;40.03
47785;BME280;35233;55.686;37.848;2023-02-18T08:41:06;99205.63;;;8.09;39.63
47785;BME280;35233;55.686;37.848;2023-02-18T08:43:32;99188.13;;;8.07;39.88
47785;BME280;35233;55.686;37.848;2023-02-18T08:45:58;99188.13;;;8.07;39.69
47785;BME280;35233;55.686;37.848;2023-02-18T08:48:24;99188.00;;;8.11;39.46
47785;BME280;35233;55.686;37.848;2023-02-18T08:50:50;99178.38;;;8.10;39.69
47785;BME280;35233;55.686;37.848;2023-02-18T08:53:16;99174.84;;;8.11;39.46
47785;BME280;35233;55.686;37.848;2023-02-18T08:55:42;99153.97;;;8.05;39.81
47785;BME280;35233;55.686;37.848;2023-02-18T08:58:08;99161.69;;;8.11;39.59
47785;BME280;35233;55.686;37.848;2023-02-18T09:00:34;99165.22;;;8.10;39.99
47785;BME280;35233;55.686;37.848;2023-02-18T09:03:00;99158.09;;;8.15;39.85
47785;BME280;35233;55.686;37.848;2023-02-18T09:05:26;99145.84;;;8.14;40.08
47785;BME280;35233;55.686;37.848;2023-02-18T09:08:01;99124.91;;;8.10;39.74
47785;BME280;35233;55.686;37.848;2023-02-18T09:10:26;99143.94;;;8.20;39.99
47785;BME280;35233;55.686;37.848;2023-02-18T09:12:52;99130.88;;;8.16;39.97
47785;BME280;35233;55.686;37.848;2023-02-18T09:15:18;99119.47;;;8.16;39.86
47785;BME280;35233;55.686;37.848;2023-02-18T09:17:43;99122.94;;;8.18;39.64
47785;BME280;35233;55.686;37.848;2023-02-18T09:20:09;99124.38;;;8.30;39.73
47785;BME280;35233;55.686;37.848;2023-02-18T09:22:35;99112.19;;;8.26;40.10
47785;BME280;35233;55.686;37.848;2023-02-18T09:25:00;99111.16;;;8.31;40.75
47785;BME280;35233;55.686;37.848;2023-02-18T09:27:33;99115.34;;;8.40;40.97
47785;BME280;35233;55.686;37.848;2023-02-18T09:29:58;99096.53;;;8.54;40.75
47785;BME280;35233;55.686;37.848;2023-02-18T09:32:24;99095.75;;;8.50;40.71
47785;BME280;35233;55.686;37.848;2023-02-18T09:34:50;99097.19;;;8.60;40.73
47785;BME280;35233;55.686;37.848;2023-02-18T09:37:16;99091.75;;;8.67;40.38
47785;BME280;35233;55.686;37.848;2023-02-18T09:39:42;99087.22;;;8.72;40.39
47785;BME280;35233;55.686;37.848;2023-02-18T09:42:13;99074.25;;;8.66;40.28
47785;BME280;35233;55.686;37.848;2023-02-18T09:44:50;99076.78;;;8.69;40.42
47785;BME280;35233;55.686;37.848;2023-02-18T09:47:20;99069.69;;;9.80;38.55
47785;BME280;35233;55.686;37.848;2023-02-18T09:49:53;99057.59;;;9.21;39.37
47785;BME280;35233;55.686;37.848;2023-02-18T09:52:26;99056.47;;;9.02;39.64
47785;BME280;35233;55.686;37.848;2023-02-18T09:54:53;99050.69;;;8.89;40.06
47785;BME280;35233;55.686;37.848;2023-02-18T09:57:26;99034.34;;;8.79;40.19
47785;BME280;35233;55.686;37.848;2023-02-18T10:00:02;99041.81;;;8.93;39.82
47785;BME280;35233;55.686;37.848;2023-02-18T10:02:31;99051.44;;;8.94;39.97
47785;BME280;35233;55.686;37.848;2023-02-18T10:04:57;99051.19;;;9.02;39.92
47785;BME280;35233;55.686;37.848;2023-02-18T10:07:29;99027.41;;;9.03;39.84
47785;BME280;35233;55.686;37.848;2023-02-18T10:09:58;99024.16;;;8.95;39.81
47785;BME280;35233;55.686;37.848;2023-02-18T10:12:25;99027.50;;;9.02;39.88
47785;BME280;35233;55.686;37.848;2023-02-18T10:14:53;99012.94;;;9.17;39.75
47785;BME280;35233;55.686;37.848;2023-02-18T10:17:21;99022.47;;;9.21;39.52
47785;BME280;35233;55.686;37.848;2023-02-18T10:19:48;99011.31;;;9.13;39.67
47785;BME280;35233;55.686;37.848;2023-02-18T10:22:15;99001.69;;;9.12;39.77
47785;BME280;35233;55.686;37.848;2023-02-18T10:25:08;98982.88;;;8.96;39.78
47785;BME280;35233;55.686;37.848;2023-02-18T10:27:39;98990.53;;;9.03;39.79
47785;BME280;35233;55.686;37.848;2023-02-18T10:32:42;98988.31;;;9.18;39.46
47785;BME280;35233;55.686;37.848;2023-02-18T10:35:39;98971.53;;;9.20;39.42
47785;BME280;35233;55.686;37.848;2023-02-18T10:38:28;98968.84;;;9.22;39.29
47785;BME280;35233;55.686;37.848;2023-02-18T10:43:44;98977.47;;;9.27;39.12
47785;BME280;35233;55.686;37.848;2023-02-18T10:51:55;98944.06;;;14.90;32.28
47785;BME280;35233;55.686;37.848;2023-02-18T10:54:26;98920.25;;;15.19;31.65
47785;BME280;35233;55.686;37.848;2023-02-18T10:56:59;98924.69;;;15.48;31.31
47785;BME280;35233;55.686;37.848;2023-02-18T10:59:28;98895.94;;;15.69;31.00
47785;BME280;35233;55.686;37.848;2023-02-18T11:02:03;98909.44;;;15.95;30.94
47785;BME280;35233;55.686;37.848;2023-02-18T11:04:39;98912.34;;;16.47;30.19
47785;BME280;35233;55.686;37.848;2023-02-18T11:07:21;98900.44;;;16.39;30.08
47785;BME280;35233;55.686;37.848;2023-02-18T11:09:50;98914.53;;;16.55;29.99
47785;BME280;35233;55.686;37.848;2023-02-18T11:12:23;98910.38;;;16.64;30.08
47785;BME280;35233;55.686;37.848;2023-02-18T11:17:35;98912.75;;;16.68;30.10
47785;BME280;35233;55.686;37.848;2023-02-18T11:20:23;98897.56;;;16.56;30.11
47785;BME280;35233;55.686;37.848;2023-02-18T11:22:50;98886.38;;;16.64;30.08
47785;BME280;35233;55.686;37.848;2023-02-18T11:25:21;98888.19;;;16.63;30.18
47785;BME280;35233;55.686;37.848;2023-02-18T11:27:55;98885.84;;;16.59;30.30
47785;BME280;35233;55.686;37.848;2023-02-18T11:30:25;98883.34;;;16.70;29.97
47785;BME280;35233;55.686;37.848;2023-02-18T11:32:58;98883.59;;;16.80;29.92
47785;BME280;35233;55.686;37.848;2023-02-18T11:35:27;98873.50;;;16.97;29.94
47785;BME280;35233;55.686;37.848;2023-02-18T11:37:56;98866.50;;;17.09;29.52
47785;BME280;35233;55.686;37.848;2023-02-18T11:40:34;98852.44;;;17.20;29.24
47785;BME280;35233;55.686;37.848;2023-02-18T11:43:12;98871.00;;;17.22;29.27
47785;BME280;35233;55.686;37.848;2023-02-18T11:45:39;98866.31;;;17.38;30.06
47785;BME280;35233;55.686;37.848;2023-02-18T11:48:15;98869.22;;;17.60;29.69
47785;BME280;35233;55.686;37.848;2023-02-18T11:50:41;98856.50;;;16.86;29.80
47785;BME280;35233;55.686;37.848;2023-02-18T11:53:30;98852.34;;;16.82;32.02
47785;BME280;35233;55.686;37.848;2023-02-18T11:55:59;98847.00;;;17.47;30.85
47785;BME280;35233;55.686;37.848;2023-02-18T11:58:25;98839.72;;;17.62;30.42
47785;BME280;35233;55.686;37.848;2023-02-18T12:00:59;98840.56;;;17.62;30.33
47785;BME280;35233;55.686;37.848;2023-02-18T12:03:37;98825.75;;;17.58;30.26
47785;BME280;35233;55.686;37.848;2023-02-18T12:07:23;98837.28;;;17.72;30.44
47785;BME280;35233;55.686;37.848;2023-02-18T12:09:31;98827.88;;;17.79;30.52
47785;BME280;35233;55.686;37.848;2023-02-18T12:12:09;98794.44;;;17.60;30.59
47785;BME280;35233;55.686;37.848;2023-02-18T12:14:36;98828.28;;;17.85;30.64
47785;BME280;35233;55.686;37.848;2023-02-18T12:23:20;98826.81;;;17.81;30.57
47785;BME280;35233;55.686;37.848;2023-02-18T12:26:12;98828.38;;;17.71;30.47
47785;BME280;35233;55.686;37.848;2023-02-18T12:31:37;98813.25;;;17.72;29.96
47785;BME280;35233;55.686;37.848;2023-02-18T12:34:23;98818.91;;;17.80;29.83
47785;BME280;35233;55.686;37.848;2023-02-18T12:37:27;98807.59;;;17.89;29.22
47785;BME280;35233;55.686;37.848;2023-02-18T12:50:34;98796.19;;;18.11;28.79
47785;BME280;35233;55.686;37.848;2023-02-18T12:58:41;98773.19;;;18.08;28.40
47785;BME280;35233;55.686;37.848;2023-02-18T13:01:34;98766.44;;;18.16;28.10
47785;BME280;35233;55.686;37.848;2023-02-18T13:04:26;98771.88;;;18.27;28.01
47785;BME280;35233;55.686;37.848;2023-02-18T13:17:42;98767.00;;;18.08;28.88
47785;BME280;35233;55.686;37.848;2023-02-18T13:20:34;98745.53;;;17.97;28.94
47785;BME280;35233;55.686;37.848;2023-02-18T13:23:02;98758.59;;;18.01;28.97
47785;BME280;35233;55.686;37.848;2023-02-18T13:25:33;98750.34;;;18.04;29.22
47785;BME280;35233;55.686;37.848;2023-02-18T13:28:31;98752.09;;;18.17;29.64
47785;BME280;35233;55.686;37.848;2023-02-18T13:33:38;98741.75;;;18.12;30.08
47785;BME280;35233;55.686;37.848;2023-02-18T13:39:08;98749.81;;;18.23;29.82
47785;BME280;35233;55.686;37.848;2023-02-18T13:41:41;98737.53;;;18.21;30.08
47785;BME280;35233;55.686;37.848;2023-02-18T13:46:55;98723.75;;;18.27;29.92
47785;BME280;35233;55.686;37.848;2023-02-18T13:49:30;98721.50;;;18.21;30.04
47785;BME280;35233;55.686;37.848;2023-02-18T13:51:57;98722.47;;;18.20;29.95
47785;BME280;35233;55.686;37.848;2023-02-18T13:54:30;98720.53;;;18.22;29.70
47785;BME280;35233;55.686;37.848;2023-02-18T13:57:05;98715.28;;;18.20;29.94
47785;BME280;35233;55.686;37.848;2023-02-18T14:09:55;98690.16;;;18.23;30.10
47785;BME280;35233;55.686;37.848;2023-02-18T14:14:58;98696.53;;;18.33;29.93
47785;BME280;35233;55.686;37.848;2023-02-18T14:17:30;98686.84;;;18.43;29.79
47785;BME280;35233;55.686;37.848;2023-02-18T14:22:31;98687.81;;;18.42;29.30
47785;BME280;35233;55.686;37.848;2023-02-18T14:27:36;98676.13;;;18.43;28.71
47785;BME280;35233;55.686;37.848;2023-02-18T14:32:47;98685.41;;;18.50;28.95
47785;BME280;35233;55.686;37.848;2023-02-18T14:49:41;98673.00;;;18.49;29.93
47785;BME280;35233;55.686;37.848;2023-02-18T14:54:45;98670.28;;;18.38;30.14
47785;BME280;35233;55.686;37.848;2023-02-18T14:57:17;98656.19;;;18.36;29.97
47785;BME280;35233;55.686;37.848;2023-02-18T14:59:47;98657.03;;;18.37;30.12
47785;BME280;35233;55.686;37.848;2023-02-18T15:02:22;98647.44;;;18.34;29.96
47785;BME280;35233;55.686;37.848;2023-02-18T15:04:48;98661.19;;;18.41;29.86
47785;BME280;35233;55.686;37.848;2023-02-18T15:07:18;98646.94;;;18.40;29.78
47785;BME280;35233;55.686;37.848;2023-02-18T15:09:51;98646.22;;;18.38;29.55
47785;BME280;35233;55.686;37.848;2023-02-18T15:12:19;98639.31;;;18.36;29.16
47785;BME280;35233;55.686;37.848;2023-02-18T15:14:47;98636.16;;;18.42;28.99
47785;BME280;35233;55.686;37.848;2023-02-18T15:17:19;98640.41;;;18.44;28.92
47785;BME280;35233;55.686;37.848;2023-02-18T15:19:55;98626.91;;;18.46;28.74
47785;BME280;35233;55.686;37.848;2023-02-18T15:22:24;98634.44;;;18.41;28.52
47785;BME280;35233;55.686;37.848;2023-02-18T15:24:52;98612.19;;;18.40;28.60
47785;BME280;35233;55.686;37.848;2023-02-18T15:27:28;98618.03;;;18.45;28.64
47785;BME280;35233;55.686;37.848;2023-02-18T15:30:12;98625.00;;;18.48;28.47
47785;BME280;35233;55.686;37.848;2023-02-18T15:32:44;98616.34;;;18.55;28.55